Denmark, Iowa
Current Conditions -  °F | °C
As of 8:15 AM on Friday 19 Dec 2014 (Local Time) from KFSW Reporting Station
Overcast Overcast  
Wind Chill: -2°   Ceiling: 6000
Heat Index: -2°   Visibility: 7mi
Dew Point: -4°   Wind: 3mph
Humidity: 86%   Direction: 110°ESE
Pressure: 30.32"   Gusts: NA
Location:  40.74°N, 91.34°W
Report Text: KFSW 191415Z AUTO 11003KT 7SM OVC060 M02/M04 A3032 RMK AO2
Loading
Personal Weather Stations






























Interactive Weather Map New forecast layout! Learn more

10-Day Weather Forecast

Advertisements
Track Severe Weather on mobile